sensor_id;sensor_type;location;lat;lon;timestamp;P1;durP1;ratioP1;P2;durP2;ratioP2
52268;SDS011;38224;50.950;4.100;2023-02-28T00:02:15;15.37;;;8.03;;
52268;SDS011;38224;50.950;4.100;2023-02-28T00:04:42;14.95;;;7.32;;
52268;SDS011;38224;50.950;4.100;2023-02-28T00:07:08;15.90;;;8.10;;
52268;SDS011;38224;50.950;4.100;2023-02-28T00:09:33;14.80;;;7.20;;
52268;SDS011;38224;50.950;4.100;2023-02-28T00:11:58;17.53;;;7.40;;
52268;SDS011;38224;50.950;4.100;2023-02-28T00:14:23;18.25;;;7.63;;
52268;SDS011;38224;50.950;4.100;2023-02-28T00:16:49;15.67;;;7.47;;
52268;SDS011;38224;50.950;4.100;2023-02-28T00:19:14;15.97;;;7.33;;
52268;SDS011;38224;50.950;4.100;2023-02-28T00:21:39;15.97;;;7.27;;
52268;SDS011;38224;50.950;4.100;2023-02-28T00:24:06;12.88;;;7.78;;
52268;SDS011;38224;50.950;4.100;2023-02-28T00:26:31;17.23;;;7.38;;
52268;SDS011;38224;50.950;4.100;2023-02-28T00:28:56;11.73;;;7.70;;
52268;SDS011;38224;50.950;4.100;2023-02-28T00:31:21;15.07;;;7.68;;
52268;SDS011;38224;50.950;4.100;2023-02-28T00:33:47;20.58;;;7.35;;
52268;SDS011;38224;50.950;4.100;2023-02-28T00:36:12;14.13;;;7.35;;
52268;SDS011;38224;50.950;4.100;2023-02-28T00:38:38;12.68;;;7.35;;
52268;SDS011;38224;50.950;4.100;2023-02-28T00:41:03;11.68;;;7.65;;
52268;SDS011;38224;50.950;4.100;2023-02-28T00:43:29;16.73;;;7.60;;
52268;SDS011;38224;50.950;4.100;2023-02-28T00:45:55;12.18;;;7.57;;
52268;SDS011;38224;50.950;4.100;2023-02-28T00:48:21;10.90;;;6.90;;
52268;SDS011;38224;50.950;4.100;2023-02-28T00:50:48;17.77;;;7.73;;
52268;SDS011;38224;50.950;4.100;2023-02-28T00:53:13;14.43;;;7.70;;
52268;SDS011;38224;50.950;4.100;2023-02-28T00:55:38;19.10;;;7.80;;
52268;SDS011;38224;50.950;4.100;2023-02-28T00:58:03;18.70;;;7.23;;
52268;SDS011;38224;50.950;4.100;2023-02-28T01:00:29;17.63;;;7.83;;
52268;SDS011;38224;50.950;4.100;2023-02-28T01:02:54;18.42;;;8.18;;
52268;SDS011;38224;50.950;4.100;2023-02-28T01:05:19;12.83;;;7.70;;
52268;SDS011;38224;50.950;4.100;2023-02-28T01:07:44;15.63;;;7.80;;
52268;SDS011;38224;50.950;4.100;2023-02-28T01:10:10;16.63;;;8.07;;
52268;SDS011;38224;50.950;4.100;2023-02-28T01:12:35;15.90;;;7.75;;
52268;SDS011;38224;50.950;4.100;2023-02-28T01:15:01;12.38;;;7.85;;
52268;SDS011;38224;50.950;4.100;2023-02-28T01:17:26;15.73;;;7.97;;
52268;SDS011;38224;50.950;4.100;2023-02-28T01:19:53;11.73;;;8.18;;
52268;SDS011;38224;50.950;4.100;2023-02-28T01:22:18;15.10;;;8.80;;
52268;SDS011;38224;50.950;4.100;2023-02-28T01:24:43;13.90;;;7.87;;
52268;SDS011;38224;50.950;4.100;2023-02-28T01:27:08;14.73;;;8.07;;
52268;SDS011;38224;50.950;4.100;2023-02-28T01:29:34;14.35;;;7.55;;
52268;SDS011;38224;50.950;4.100;2023-02-28T01:31:59;12.23;;;7.77;;
52268;SDS011;38224;50.950;4.100;2023-02-28T01:34:24;15.57;;;8.30;;
52268;SDS011;38224;50.950;4.100;2023-02-28T01:36:49;14.35;;;7.75;;
52268;SDS011;38224;50.950;4.100;2023-02-28T01:39:15;14.80;;;8.63;;
52268;SDS011;38224;50.950;4.100;2023-02-28T01:41:40;11.85;;;7.68;;
52268;SDS011;38224;50.950;4.100;2023-02-28T01:46:51;11.88;;;7.38;;
52268;SDS011;38224;50.950;4.100;2023-02-28T01:49:16;11.23;;;7.77;;
52268;SDS011;38224;50.950;4.100;2023-02-28T01:51:44;11.65;;;7.25;;
52268;SDS011;38224;50.950;4.100;2023-02-28T01:54:12;18.67;;;8.35;;
52268;SDS011;38224;50.950;4.100;2023-02-28T01:56:41;13.43;;;7.45;;
52268;SDS011;38224;50.950;4.100;2023-02-28T01:59:08;15.23;;;7.80;;
52268;SDS011;38224;50.950;4.100;2023-02-28T02:01:34;14.63;;;8.60;;
52268;SDS011;38224;50.950;4.100;2023-02-28T02:04:01;12.60;;;7.93;;
52268;SDS011;38224;50.950;4.100;2023-02-28T02:06:30;17.27;;;8.38;;
52268;SDS011;38224;50.950;4.100;2023-02-28T02:08:56;15.93;;;7.68;;
52268;SDS011;38224;50.950;4.100;2023-02-28T02:11:21;17.17;;;8.98;;
52268;SDS011;38224;50.950;4.100;2023-02-28T02:18:54;20.27;;;9.13;;
52268;SDS011;38224;50.950;4.100;2023-02-28T02:36:33;13.80;;;10.23;;
52268;SDS011;38224;50.950;4.100;2023-02-28T02:39:17;20.55;;;10.50;;
52268;SDS011;38224;50.950;4.100;2023-02-28T02:41:51;30.75;;;10.35;;
52268;SDS011;38224;50.950;4.100;2023-02-28T02:47:03;17.67;;;10.88;;
52268;SDS011;38224;50.950;4.100;2023-02-28T02:49:31;16.55;;;9.90;;
52268;SDS011;38224;50.950;4.100;2023-02-28T02:51:57;13.07;;;9.55;;
52268;SDS011;38224;50.950;4.100;2023-02-28T02:54:24;19.27;;;9.98;;
52268;SDS011;38224;50.950;4.100;2023-02-28T02:56:53;26.88;;;11.20;;
52268;SDS011;38224;50.950;4.100;2023-02-28T02:59:21;20.55;;;12.43;;
52268;SDS011;38224;50.950;4.100;2023-02-28T03:01:50;23.40;;;10.60;;
52268;SDS011;38224;50.950;4.100;2023-02-28T03:04:18;14.63;;;10.50;;
52268;SDS011;38224;50.950;4.100;2023-02-28T03:06:44;19.40;;;11.07;;
52268;SDS011;38224;50.950;4.100;2023-02-28T03:09:09;19.50;;;10.98;;
52268;SDS011;38224;50.950;4.100;2023-02-28T03:11:35;20.13;;;10.83;;
52268;SDS011;38224;50.950;4.100;2023-02-28T03:21:43;23.25;;;10.50;;
52268;SDS011;38224;50.950;4.100;2023-02-28T03:24:14;24.40;;;10.68;;
52268;SDS011;38224;50.950;4.100;2023-02-28T03:26:42;18.23;;;10.50;;
52268;SDS011;38224;50.950;4.100;2023-02-28T03:31:46;30.20;;;11.85;;
52268;SDS011;38224;50.950;4.100;2023-02-28T03:34:16;21.98;;;10.95;;
52268;SDS011;38224;50.950;4.100;2023-02-28T03:36:51;18.60;;;10.70;;
52268;SDS011;38224;50.950;4.100;2023-02-28T03:39:20;21.92;;;11.85;;
52268;SDS011;38224;50.950;4.100;2023-02-28T03:41:47;24.08;;;11.68;;
52268;SDS011;38224;50.950;4.100;2023-02-28T03:44:21;16.27;;;11.57;;
52268;SDS011;38224;50.950;4.100;2023-02-28T03:46:57;19.77;;;12.63;;
52268;SDS011;38224;50.950;4.100;2023-02-28T03:49:25;22.50;;;11.75;;
52268;SDS011;38224;50.950;4.100;2023-02-28T03:51:52;25.33;;;12.45;;
52268;SDS011;38224;50.950;4.100;2023-02-28T03:54:20;19.98;;;11.82;;
52268;SDS011;38224;50.950;4.100;2023-02-28T03:56:49;24.80;;;12.77;;
52268;SDS011;38224;50.950;4.100;2023-02-28T03:59:37;19.13;;;12.25;;
52268;SDS011;38224;50.950;4.100;2023-02-28T04:02:02;19.27;;;12.18;;
52268;SDS011;38224;50.950;4.100;2023-02-28T04:04:28;21.77;;;12.73;;
52268;SDS011;38224;50.950;4.100;2023-02-28T04:07:00;21.48;;;12.55;;
52268;SDS011;38224;50.950;4.100;2023-02-28T04:09:26;21.55;;;12.68;;
52268;SDS011;38224;50.950;4.100;2023-02-28T04:11:52;18.38;;;12.45;;
52268;SDS011;38224;50.950;4.100;2023-02-28T04:14:17;22.50;;;12.10;;
52268;SDS011;38224;50.950;4.100;2023-02-28T04:16:43;18.13;;;12.07;;
52268;SDS011;38224;50.950;4.100;2023-02-28T04:19:09;16.52;;;11.52;;
52268;SDS011;38224;50.950;4.100;2023-02-28T04:21:35;24.02;;;12.48;;
52268;SDS011;38224;50.950;4.100;2023-02-28T04:24:01;21.10;;;11.80;;
52268;SDS011;38224;50.950;4.100;2023-02-28T04:26:33;19.55;;;11.35;;
52268;SDS011;38224;50.950;4.100;2023-02-28T04:28:59;19.80;;;11.82;;
52268;SDS011;38224;50.950;4.100;2023-02-28T04:31:24;23.73;;;12.27;;
52268;SDS011;38224;50.950;4.100;2023-02-28T04:33:49;24.15;;;12.10;;
52268;SDS011;38224;50.950;4.100;2023-02-28T04:36:15;18.42;;;11.45;;
52268;SDS011;38224;50.950;4.100;2023-02-28T04:38:42;21.05;;;11.88;;
52268;SDS011;38224;50.950;4.100;2023-02-28T04:41:08;27.30;;;12.77;;
52268;SDS011;38224;50.950;4.100;2023-02-28T04:43:33;19.27;;;11.63;;
52268;SDS011;38224;50.950;4.100;2023-02-28T04:46:00;21.00;;;12.38;;
52268;SDS011;38224;50.950;4.100;2023-02-28T04:48:27;26.85;;;12.88;;
52268;SDS011;38224;50.950;4.100;2023-02-28T04:50:52;26.40;;;12.63;;
52268;SDS011;38224;50.950;4.100;2023-02-28T04:53:18;20.42;;;12.13;;
52268;SDS011;38224;50.950;4.100;2023-02-28T04:55:43;21.40;;;11.85;;
52268;SDS011;38224;50.950;4.100;2023-02-28T04:58:09;22.58;;;12.27;;
52268;SDS011;38224;50.950;4.100;2023-02-28T05:00:34;20.60;;;12.07;;
52268;SDS011;38224;50.950;4.100;2023-02-28T05:02:59;19.17;;;12.52;;
52268;SDS011;38224;50.950;4.100;2023-02-28T05:05:24;23.53;;;11.60;;
52268;SDS011;38224;50.950;4.100;2023-02-28T05:07:50;22.97;;;11.80;;
52268;SDS011;38224;50.950;4.100;2023-02-28T05:10:15;21.13;;;10.57;;
52268;SDS011;38224;50.950;4.100;2023-02-28T05:12:40;23.42;;;11.85;;
52268;SDS011;38224;50.950;4.100;2023-02-28T05:15:06;19.60;;;11.27;;
52268;SDS011;38224;50.950;4.100;2023-02-28T05:17:31;18.20;;;11.40;;
52268;SDS011;38224;50.950;4.100;2023-02-28T05:19:56;20.57;;;10.30;;
52268;SDS011;38224;50.950;4.100;2023-02-28T05:22:21;17.97;;;10.90;;
52268;SDS011;38224;50.950;4.100;2023-02-28T05:24:47;21.10;;;11.35;;
52268;SDS011;38224;50.950;4.100;2023-02-28T05:27:12;21.30;;;10.83;;
52268;SDS011;38224;50.950;4.100;2023-02-28T05:29:37;20.05;;;12.05;;
52268;SDS011;38224;50.950;4.100;2023-02-28T05:32:08;25.27;;;12.65;;
52268;SDS011;38224;50.950;4.100;2023-02-28T05:34:33;23.00;;;11.07;;
52268;SDS011;38224;50.950;4.100;2023-02-28T05:36:58;17.47;;;10.63;;
52268;SDS011;38224;50.950;4.100;2023-02-28T05:39:24;19.80;;;11.07;;
52268;SDS011;38224;50.950;4.100;2023-02-28T05:41:49;23.10;;;11.07;;
52268;SDS011;38224;50.950;4.100;2023-02-28T05:44:15;20.53;;;12.03;;
52268;SDS011;38224;50.950;4.100;2023-02-28T05:46:40;26.92;;;11.90;;
52268;SDS011;38224;50.950;4.100;2023-02-28T05:49:05;22.77;;;11.50;;
52268;SDS011;38224;50.950;4.100;2023-02-28T05:51:31;23.05;;;11.70;;
52268;SDS011;38224;50.950;4.100;2023-02-28T05:53:58;25.17;;;10.77;;
52268;SDS011;38224;50.950;4.100;2023-02-28T05:56:23;21.30;;;11.48;;
52268;SDS011;38224;50.950;4.100;2023-02-28T05:58:49;19.70;;;11.50;;
52268;SDS011;38224;50.950;4.100;2023-02-28T06:01:21;17.60;;;12.03;;
52268;SDS011;38224;50.950;4.100;2023-02-28T06:03:47;21.33;;;12.50;;
52268;SDS011;38224;50.950;4.100;2023-02-28T06:06:13;33.95;;;14.50;;
52268;SDS011;38224;50.950;4.100;2023-02-28T06:08:38;19.03;;;11.13;;
52268;SDS011;38224;50.950;4.100;2023-02-28T06:11:03;21.83;;;11.52;;
52268;SDS011;38224;50.950;4.100;2023-02-28T06:13:29;28.42;;;15.15;;
52268;SDS011;38224;50.950;4.100;2023-02-28T06:15:54;61.42;;;26.45;;
52268;SDS011;38224;50.950;4.100;2023-02-28T06:18:20;63.75;;;33.03;;
52268;SDS011;38224;50.950;4.100;2023-02-28T06:20:51;34.10;;;18.53;;
52268;SDS011;38224;50.950;4.100;2023-02-28T06:23:18;35.47;;;21.55;;
52268;SDS011;38224;50.950;4.100;2023-02-28T06:25:44;28.63;;;20.93;;
52268;SDS011;38224;50.950;4.100;2023-02-28T06:28:09;28.23;;;15.20;;
52268;SDS011;38224;50.950;4.100;2023-02-28T06:30:36;19.40;;;12.27;;
52268;SDS011;38224;50.950;4.100;2023-02-28T06:33:01;21.70;;;11.57;;
52268;SDS011;38224;50.950;4.100;2023-02-28T06:35:26;20.25;;;11.15;;
52268;SDS011;38224;50.950;4.100;2023-02-28T06:37:52;26.77;;;11.05;;
52268;SDS011;38224;50.950;4.100;2023-02-28T06:40:17;24.17;;;13.05;;
52268;SDS011;38224;50.950;4.100;2023-02-28T06:42:42;32.83;;;17.53;;
52268;SDS011;38224;50.950;4.100;2023-02-28T06:45:08;50.20;;;27.00;;
52268;SDS011;38224;50.950;4.100;2023-02-28T06:47:35;170.55;;;75.75;;
52268;SDS011;38224;50.950;4.100;2023-02-28T06:50:01;28.23;;;15.27;;
52268;SDS011;38224;50.950;4.100;2023-02-28T06:52:26;30.85;;;13.55;;
52268;SDS011;38224;50.950;4.100;2023-02-28T06:54:51;24.20;;;10.52;;
52268;SDS011;38224;50.950;4.100;2023-02-28T06:57:25;22.25;;;11.05;;
52268;SDS011;38224;50.950;4.100;2023-02-28T06:59:50;24.55;;;11.88;;
52268;SDS011;38224;50.950;4.100;2023-02-28T07:02:15;20.10;;;12.20;;
52268;SDS011;38224;50.950;4.100;2023-02-28T07:04:40;17.47;;;11.23;;
52268;SDS011;38224;50.950;4.100;2023-02-28T07:07:09;19.55;;;11.43;;
52268;SDS011;38224;50.950;4.100;2023-02-28T07:09:34;19.23;;;10.75;;
52268;SDS011;38224;50.950;4.100;2023-02-28T07:12:00;17.93;;;10.40;;
52268;SDS011;38224;50.950;4.100;2023-02-28T07:14:25;17.80;;;9.93;;
52268;SDS011;38224;50.950;4.100;2023-02-28T07:16:51;15.48;;;9.90;;
52268;SDS011;38224;50.950;4.100;2023-02-28T07:19:16;23.45;;;11.38;;
52268;SDS011;38224;50.950;4.100;2023-02-28T07:21:41;19.42;;;11.20;;
52268;SDS011;38224;50.950;4.100;2023-02-28T07:24:06;18.53;;;10.40;;
52268;SDS011;38224;50.950;4.100;2023-02-28T07:26:32;19.40;;;10.93;;
52268;SDS011;38224;50.950;4.100;2023-02-28T07:28:59;19.38;;;9.90;;
52268;SDS011;38224;50.950;4.100;2023-02-28T07:31:24;21.65;;;11.57;;
52268;SDS011;38224;50.950;4.100;2023-02-28T07:33:49;22.35;;;10.55;;
52268;SDS011;38224;50.950;4.100;2023-02-28T07:36:15;19.67;;;10.07;;
52268;SDS011;38224;50.950;4.100;2023-02-28T07:38:42;18.40;;;9.70;;
52268;SDS011;38224;50.950;4.100;2023-02-28T07:41:08;18.48;;;10.00;;
52268;SDS011;38224;50.950;4.100;2023-02-28T07:43:34;19.45;;;9.75;;
52268;SDS011;38224;50.950;4.100;2023-02-28T07:46:06;18.02;;;9.35;;
52268;SDS011;38224;50.950;4.100;2023-02-28T07:48:32;21.75;;;10.02;;
52268;SDS011;38224;50.950;4.100;2023-02-28T07:50:58;19.52;;;11.43;;
52268;SDS011;38224;50.950;4.100;2023-02-28T07:53:24;15.75;;;9.07;;
52268;SDS011;38224;50.950;4.100;2023-02-28T07:55:49;19.20;;;9.90;;
52268;SDS011;38224;50.950;4.100;2023-02-28T07:58:14;23.93;;;9.27;;
52268;SDS011;38224;50.950;4.100;2023-02-28T08:00:39;17.30;;;9.02;;
52268;SDS011;38224;50.950;4.100;2023-02-28T08:03:05;20.37;;;9.37;;
52268;SDS011;38224;50.950;4.100;2023-02-28T08:05:30;24.57;;;8.47;;
52268;SDS011;38224;50.950;4.100;2023-02-28T08:07:55;17.48;;;8.27;;
52268;SDS011;38224;50.950;4.100;2023-02-28T08:10:21;14.95;;;8.18;;
52268;SDS011;38224;50.950;4.100;2023-02-28T08:12:46;13.68;;;7.32;;
52268;SDS011;38224;50.950;4.100;2023-02-28T08:15:11;15.50;;;8.65;;
52268;SDS011;38224;50.950;4.100;2023-02-28T08:17:37;17.80;;;8.30;;
52268;SDS011;38224;50.950;4.100;2023-02-28T08:20:02;23.55;;;9.23;;
52268;SDS011;38224;50.950;4.100;2023-02-28T08:22:29;18.08;;;10.18;;
52268;SDS011;38224;50.950;4.100;2023-02-28T08:24:54;18.45;;;8.65;;
52268;SDS011;38224;50.950;4.100;2023-02-28T08:27:19;16.17;;;7.73;;
52268;SDS011;38224;50.950;4.100;2023-02-28T08:29:44;17.37;;;7.57;;
52268;SDS011;38224;50.950;4.100;2023-02-28T08:32:10;12.77;;;7.70;;
52268;SDS011;38224;50.950;4.100;2023-02-28T08:34:35;11.83;;;7.03;;
52268;SDS011;38224;50.950;4.100;2023-02-28T08:37:00;14.97;;;7.57;;
52268;SDS011;38224;50.950;4.100;2023-02-28T08:39:25;11.93;;;7.15;;
52268;SDS011;38224;50.950;4.100;2023-02-28T08:41:51;19.37;;;8.50;;
52268;SDS011;38224;50.950;4.100;2023-02-28T08:44:16;15.33;;;7.47;;
52268;SDS011;38224;50.950;4.100;2023-02-28T08:46:41;15.37;;;7.40;;
52268;SDS011;38224;50.950;4.100;2023-02-28T08:49:06;12.02;;;5.65;;
52268;SDS011;38224;50.950;4.100;2023-02-28T08:51:32;14.82;;;6.68;;
52268;SDS011;38224;50.950;4.100;2023-02-28T08:53:58;13.73;;;6.43;;
52268;SDS011;38224;50.950;4.100;2023-02-28T08:56:25;67.20;;;25.98;;
52268;SDS011;38224;50.950;4.100;2023-02-28T08:58:50;157.55;;;49.22;;
52268;SDS011;38224;50.950;4.100;2023-02-28T09:01:17;37.53;;;15.23;;
52268;SDS011;38224;50.950;4.100;2023-02-28T09:03:43;112.60;;;36.05;;
52268;SDS011;38224;50.950;4.100;2023-02-28T09:06:09;62.47;;;21.65;;
52268;SDS011;38224;50.950;4.100;2023-02-28T09:08:35;122.50;;;39.10;;
52268;SDS011;38224;50.950;4.100;2023-02-28T09:11:00;13.00;;;6.32;;
52268;SDS011;38224;50.950;4.100;2023-02-28T09:13:26;8.40;;;3.95;;
52268;SDS011;38224;50.950;4.100;2023-02-28T09:15:52;25.88;;;14.05;;
52268;SDS011;38224;50.950;4.100;2023-02-28T09:18:18;7.13;;;3.95;;
52268;SDS011;38224;50.950;4.100;2023-02-28T09:20:43;10.32;;;4.78;;
52268;SDS011;38224;50.950;4.100;2023-02-28T09:23:10;10.45;;;4.22;;
52268;SDS011;38224;50.950;4.100;2023-02-28T09:25:36;7.55;;;4.10;;
52268;SDS011;38224;50.950;4.100;2023-02-28T09:28:01;6.93;;;3.70;;
52268;SDS011;38224;50.950;4.100;2023-02-28T09:30:27;6.35;;;3.25;;
52268;SDS011;38224;50.950;4.100;2023-02-28T09:32:52;7.15;;;3.35;;
52268;SDS011;38224;50.950;4.100;2023-02-28T09:35:18;7.78;;;4.20;;
52268;SDS011;38224;50.950;4.100;2023-02-28T09:37:44;8.27;;;3.55;;
52268;SDS011;38224;50.950;4.100;2023-02-28T09:40:10;7.93;;;3.28;;
52268;SDS011;38224;50.950;4.100;2023-02-28T09:42:37;8.10;;;3.33;;
52268;SDS011;38224;50.950;4.100;2023-02-28T09:45:05;4.15;;;3.30;;
52268;SDS011;38224;50.950;4.100;2023-02-28T09:47:39;7.22;;;3.78;;
52268;SDS011;38224;50.950;4.100;2023-02-28T09:50:15;6.53;;;3.45;;
52268;SDS011;38224;50.950;4.100;2023-02-28T09:52:42;13.40;;;5.07;;
52268;SDS011;38224;50.950;4.100;2023-02-28T09:57:44;5.35;;;2.95;;
52268;SDS011;38224;50.950;4.100;2023-02-28T10:05:44;5.13;;;2.30;;
52268;SDS011;38224;50.950;4.100;2023-02-28T10:08:35;5.93;;;2.50;;
52268;SDS011;38224;50.950;4.100;2023-02-28T10:11:00;3.05;;;2.03;;
52268;SDS011;38224;50.950;4.100;2023-02-28T10:15:55;4.18;;;2.72;;
52268;SDS011;38224;50.950;4.100;2023-02-28T10:18:24;4.90;;;2.50;;
52268;SDS011;38224;50.950;4.100;2023-02-28T10:20:49;3.22;;;2.20;;
52268;SDS011;38224;50.950;4.100;2023-02-28T10:23:17;5.10;;;2.33;;
52268;SDS011;38224;50.950;4.100;2023-02-28T10:25:45;10.35;;;3.00;;
52268;SDS011;38224;50.950;4.100;2023-02-28T10:28:16;16.25;;;2.60;;
52268;SDS011;38224;50.950;4.100;2023-02-28T10:30:52;5.07;;;2.17;;
52268;SDS011;38224;50.950;4.100;2023-02-28T10:33:19;5.00;;;3.03;;
52268;SDS011;38224;50.950;4.100;2023-02-28T10:35:45;5.10;;;2.95;;
52268;SDS011;38224;50.950;4.100;2023-02-28T10:38:15;6.07;;;2.60;;
52268;SDS011;38224;50.950;4.100;2023-02-28T10:40:40;4.50;;;2.33;;
52268;SDS011;38224;50.950;4.100;2023-02-28T10:43:17;4.20;;;2.55;;
52268;SDS011;38224;50.950;4.100;2023-02-28T10:45:56;4.35;;;2.45;;
52268;SDS011;38224;50.950;4.100;2023-02-28T11:01:18;5.93;;;2.65;;
52268;SDS011;38224;50.950;4.100;2023-02-28T11:03:44;7.18;;;2.30;;
52268;SDS011;38224;50.950;4.100;2023-02-28T11:08:51;8.43;;;3.05;;
52268;SDS011;38224;50.950;4.100;2023-02-28T11:11:17;4.70;;;2.50;;
52268;SDS011;38224;50.950;4.100;2023-02-28T11:13:44;5.45;;;2.75;;
52268;SDS011;38224;50.950;4.100;2023-02-28T11:16:10;5.10;;;2.30;;
52268;SDS011;38224;50.950;4.100;2023-02-28T11:18:39;3.55;;;2.40;;
52268;SDS011;38224;50.950;4.100;2023-02-28T11:21:05;5.40;;;2.40;;
52268;SDS011;38224;50.950;4.100;2023-02-28T11:23:32;6.18;;;2.50;;
52268;SDS011;38224;50.950;4.100;2023-02-28T11:26:00;3.80;;;2.33;;
52268;SDS011;38224;50.950;4.100;2023-02-28T11:28:30;4.28;;;2.50;;
52268;SDS011;38224;50.950;4.100;2023-02-28T11:31:29;3.88;;;2.20;;
52268;SDS011;38224;50.950;4.100;2023-02-28T11:36:25;5.65;;;2.40;;
52268;SDS011;38224;50.950;4.100;2023-02-28T11:38:55;8.35;;;2.28;;
52268;SDS011;38224;50.950;4.100;2023-02-28T11:41:34;3.38;;;2.30;;
52268;SDS011;38224;50.950;4.100;2023-02-28T11:44:09;2.20;;;2.00;;
52268;SDS011;38224;50.950;4.100;2023-02-28T11:46:52;3.60;;;2.08;;
52268;SDS011;38224;50.950;4.100;2023-02-28T11:51:56;2.80;;;2.22;;
52268;SDS011;38224;50.950;4.100;2023-02-28T11:54:27;3.67;;;2.63;;
52268;SDS011;38224;50.950;4.100;2023-02-28T11:56:57;6.72;;;4.15;;
52268;SDS011;38224;50.950;4.100;2023-02-28T12:01:58;3.90;;;2.38;;
52268;SDS011;38224;50.950;4.100;2023-02-28T12:07:11;4.22;;;2.45;;
52268;SDS011;38224;50.950;4.100;2023-02-28T12:17:19;4.38;;;3.10;;
52268;SDS011;38224;50.950;4.100;2023-02-28T12:24:55;4.50;;;2.70;;
52268;SDS011;38224;50.950;4.100;2023-02-28T12:27:25;7.88;;;2.47;;
52268;SDS011;38224;50.950;4.100;2023-02-28T12:29:54;7.55;;;2.42;;
52268;SDS011;38224;50.950;4.100;2023-02-28T12:32:23;5.75;;;2.85;;
52268;SDS011;38224;50.950;4.100;2023-02-28T12:34:57;4.70;;;3.00;;
52268;SDS011;38224;50.950;4.100;2023-02-28T12:38:09;4.55;;;2.78;;
52268;SDS011;38224;50.950;4.100;2023-02-28T12:40:16;4.18;;;2.70;;
52268;SDS011;38224;50.950;4.100;2023-02-28T12:42:44;3.85;;;2.30;;
52268;SDS011;38224;50.950;4.100;2023-02-28T12:45:22;4.22;;;2.75;;
52268;SDS011;38224;50.950;4.100;2023-02-28T12:47:50;4.10;;;2.47;;
52268;SDS011;38224;50.950;4.100;2023-02-28T12:50:15;4.35;;;2.35;;
52268;SDS011;38224;50.950;4.100;2023-02-28T12:55:28;8.07;;;2.88;;
52268;SDS011;38224;50.950;4.100;2023-02-28T12:58:07;3.30;;;2.65;;
52268;SDS011;38224;50.950;4.100;2023-02-28T13:00:36;4.40;;;2.63;;
52268;SDS011;38224;50.950;4.100;2023-02-28T13:03:11;4.57;;;2.88;;
52268;SDS011;38224;50.950;4.100;2023-02-28T13:10:44;6.35;;;2.70;;
52268;SDS011;38224;50.950;4.100;2023-02-28T13:13:17;4.70;;;2.50;;
52268;SDS011;38224;50.950;4.100;2023-02-28T13:18:28;4.18;;;2.65;;
52268;SDS011;38224;50.950;4.100;2023-02-28T13:20:54;5.65;;;2.42;;
52268;SDS011;38224;50.950;4.100;2023-02-28T13:26:04;4.88;;;1.92;;
52268;SDS011;38224;50.950;4.100;2023-02-28T13:31:13;4.07;;;3.00;;
52268;SDS011;38224;50.950;4.100;2023-02-28T13:36:27;4.10;;;2.63;;
52268;SDS011;38224;50.950;4.100;2023-02-28T13:38:57;4.35;;;2.80;;
52268;SDS011;38224;50.950;4.100;2023-02-28T13:46:31;3.50;;;2.50;;
52268;SDS011;38224;50.950;4.100;2023-02-28T13:49:18;4.88;;;3.03;;
52268;SDS011;38224;50.950;4.100;2023-02-28T13:51:46;3.13;;;2.58;;
52268;SDS011;38224;50.950;4.100;2023-02-28T13:54:16;7.45;;;3.30;;
52268;SDS011;38224;50.950;4.100;2023-02-28T13:56:45;6.45;;;3.63;;
52268;SDS011;38224;50.950;4.100;2023-02-28T14:05:33;8.88;;;3.58;;
52268;SDS011;38224;50.950;4.100;2023-02-28T14:07:42;4.50;;;3.00;;
52268;SDS011;38224;50.950;4.100;2023-02-28T14:10:23;8.30;;;3.05;;
52268;SDS011;38224;50.950;4.100;2023-02-28T14:15:36;5.37;;;3.87;;
52268;SDS011;38224;50.950;4.100;2023-02-28T14:18:03;5.82;;;3.42;;
52268;SDS011;38224;50.950;4.100;2023-02-28T14:20:31;7.97;;;3.38;;
52268;SDS011;38224;50.950;4.100;2023-02-28T14:23:09;7.55;;;3.50;;
52268;SDS011;38224;50.950;4.100;2023-02-28T14:25:38;5.18;;;3.60;;
52268;SDS011;38224;50.950;4.100;2023-02-28T14:28:09;6.22;;;3.47;;
52268;SDS011;38224;50.950;4.100;2023-02-28T14:33:12;6.05;;;3.42;;
52268;SDS011;38224;50.950;4.100;2023-02-28T14:38:06;4.63;;;3.30;;
52268;SDS011;38224;50.950;4.100;2023-02-28T14:40:38;5.57;;;3.88;;
52268;SDS011;38224;50.950;4.100;2023-02-28T14:43:05;5.97;;;3.08;;
52268;SDS011;38224;50.950;4.100;2023-02-28T14:45:31;5.30;;;3.35;;
52268;SDS011;38224;50.950;4.100;2023-02-28T14:47:58;6.03;;;3.97;;
52268;SDS011;38224;50.950;4.100;2023-02-28T14:50:29;8.60;;;3.28;;
52268;SDS011;38224;50.950;4.100;2023-02-28T14:52:55;5.40;;;3.10;;
52268;SDS011;38224;50.950;4.100;2023-02-28T14:55:28;3.40;;;2.92;;
52268;SDS011;38224;50.950;4.100;2023-02-28T14:57:55;4.18;;;3.22;;
52268;SDS011;38224;50.950;4.100;2023-02-28T15:00:27;5.00;;;3.08;;
52268;SDS011;38224;50.950;4.100;2023-02-28T15:02:54;4.80;;;3.45;;
52268;SDS011;38224;50.950;4.100;2023-02-28T15:07:49;5.10;;;3.25;;
52268;SDS011;38224;50.950;4.100;2023-02-28T15:10:25;6.82;;;3.20;;
52268;SDS011;38224;50.950;4.100;2023-02-28T15:13:01;6.15;;;3.30;;
52268;SDS011;38224;50.950;4.100;2023-02-28T15:17:56;6.60;;;3.45;;
52268;SDS011;38224;50.950;4.100;2023-02-28T15:20:21;3.50;;;2.90;;
52268;SDS011;38224;50.950;4.100;2023-02-28T15:22:47;8.13;;;3.80;;
52268;SDS011;38224;50.950;4.100;2023-02-28T15:25:16;6.60;;;3.58;;
52268;SDS011;38224;50.950;4.100;2023-02-28T15:27:44;7.50;;;3.28;;
52268;SDS011;38224;50.950;4.100;2023-02-28T15:30:15;5.57;;;3.55;;
52268;SDS011;38224;50.950;4.100;2023-02-28T15:32:41;6.78;;;3.78;;
52268;SDS011;38224;50.950;4.100;2023-02-28T15:38:15;6.03;;;3.50;;
52268;SDS011;38224;50.950;4.100;2023-02-28T15:40:42;5.22;;;3.67;;
52268;SDS011;38224;50.950;4.100;2023-02-28T15:43:15;4.72;;;2.92;;
52268;SDS011;38224;50.950;4.100;2023-02-28T15:45:41;6.00;;;3.42;;
52268;SDS011;38224;50.950;4.100;2023-02-28T15:50:41;6.10;;;3.95;;
52268;SDS011;38224;50.950;4.100;2023-02-28T15:53:11;5.75;;;3.97;;
52268;SDS011;38224;50.950;4.100;2023-02-28T15:55:37;5.53;;;3.95;;
52268;SDS011;38224;50.950;4.100;2023-02-28T15:58:03;9.02;;;4.03;;
52268;SDS011;38224;50.950;4.100;2023-02-28T16:00:30;5.70;;;3.17;;
52268;SDS011;38224;50.950;4.100;2023-02-28T16:02:57;6.50;;;3.75;;
52268;SDS011;38224;50.950;4.100;2023-02-28T16:05:24;5.18;;;3.25;;
52268;SDS011;38224;50.950;4.100;2023-02-28T16:07:55;4.90;;;3.67;;
52268;SDS011;38224;50.950;4.100;2023-02-28T16:10:21;6.43;;;3.55;;
52268;SDS011;38224;50.950;4.100;2023-02-28T16:12:50;8.07;;;3.50;;
52268;SDS011;38224;50.950;4.100;2023-02-28T16:17:47;6.20;;;3.70;;
52268;SDS011;38224;50.950;4.100;2023-02-28T16:20:16;4.72;;;3.90;;
52268;SDS011;38224;50.950;4.100;2023-02-28T16:22:42;7.03;;;3.92;;
52268;SDS011;38224;50.950;4.100;2023-02-28T16:25:11;6.70;;;3.55;;
52268;SDS011;38224;50.950;4.100;2023-02-28T16:27:36;9.50;;;4.30;;
52268;SDS011;38224;50.950;4.100;2023-02-28T16:30:03;9.00;;;4.47;;
52268;SDS011;38224;50.950;4.100;2023-02-28T16:32:29;9.50;;;4.07;;
52268;SDS011;38224;50.950;4.100;2023-02-28T16:34:55;4.82;;;3.60;;
52268;SDS011;38224;50.950;4.100;2023-02-28T16:37:21;9.20;;;4.07;;
52268;SDS011;38224;50.950;4.100;2023-02-28T16:39:46;9.33;;;5.03;;
52268;SDS011;38224;50.950;4.100;2023-02-28T16:42:15;8.20;;;3.80;;
52268;SDS011;38224;50.950;4.100;2023-02-28T16:44:41;5.55;;;4.00;;
52268;SDS011;38224;50.950;4.100;2023-02-28T16:47:08;7.88;;;4.78;;
52268;SDS011;38224;50.950;4.100;2023-02-28T16:49:34;8.70;;;4.25;;
52268;SDS011;38224;50.950;4.100;2023-02-28T16:51:59;9.60;;;4.30;;
52268;SDS011;38224;50.950;4.100;2023-02-28T16:54:24;9.23;;;3.53;;